sim
Sign-in with your pilot id or email,
or register
Callsign
Passwort

Schedule Details

Flight Number: EWG1898 (1)
Departure: Munich Airport (EDDM) at 05:20
Arrival: Naples Airport (LIRN) at 07:00
Route: Eurowings Passenger Schedule. Enter filed route here before submitting Pirep.

Weather Information
Getting current METAR information for EDDM 211220Z 03005KT 330V080 CAVOK 22/12 Q1016 NOSIG
Getting current METAR information for LIRN 211220Z 22008KT 170V260 8000 FEW030 SCT070 27/20 Q1015 NOSIG

Schedule Frequency

Route Map